createdAt,value
2019-04-28T00:00:12.936Z,2.87
2019-04-28T00:02:40.871Z,3.23
2019-04-28T00:05:08.995Z,2.43
2019-04-28T00:07:36.730Z,3.40
2019-04-28T00:10:06.488Z,4.40
2019-04-28T00:12:36.208Z,4.50
2019-04-28T00:15:04.372Z,3.00
2019-04-28T00:17:32.004Z,3.00
2019-04-28T00:20:01.484Z,3.37
2019-04-28T00:22:48.551Z,3.53
2019-04-28T00:25:21.498Z,2.97
2019-04-28T00:27:49.111Z,2.60
2019-04-28T00:30:16.676Z,3.73
2019-04-28T00:32:44.259Z,3.00
2019-04-28T00:35:14.259Z,2.60
2019-04-28T00:37:41.930Z,3.13
2019-04-28T00:40:11.091Z,2.43
2019-04-28T00:42:41.237Z,2.80
2019-04-28T00:45:12.008Z,3.20
2019-04-28T00:47:40.884Z,2.47
2019-04-28T00:50:09.219Z,2.50
2019-04-28T00:52:36.794Z,2.87
2019-04-28T00:55:07.676Z,2.50
2019-04-28T00:57:37.799Z,2.97
2019-04-28T01:00:06.420Z,2.43
2019-04-28T01:02:41.293Z,2.77
2019-04-28T01:05:11.242Z,2.90
2019-04-28T01:07:38.991Z,2.53
2019-04-28T01:10:06.579Z,2.10
2019-04-28T01:12:34.319Z,2.80
2019-04-28T01:15:04.743Z,2.83
2019-04-28T01:17:52.453Z,2.50
2019-04-28T01:20:21.478Z,2.57
2019-04-28T01:22:49.715Z,2.77
2019-04-28T01:25:17.359Z,2.20
2019-04-28T01:27:57.169Z,2.80
2019-04-28T01:30:56.947Z,2.77
2019-04-28T01:33:55.735Z,2.50
2019-04-28T01:36:26.965Z,2.77
2019-04-28T01:38:54.621Z,2.53
2019-04-28T01:41:22.213Z,2.50
2019-04-28T01:43:49.955Z,2.67
2019-04-28T01:46:24.906Z,2.77
2019-04-28T01:48:52.792Z,2.00
2019-04-28T01:51:20.874Z,2.10
2019-04-28T01:53:50.318Z,2.17
2019-04-28T01:56:20.395Z,2.10
2019-04-28T01:58:48.099Z,2.20
2019-04-28T02:01:15.570Z,2.23
2019-04-28T02:03:43.283Z,2.33
2019-04-28T02:06:10.865Z,2.93
2019-04-28T02:08:39.912Z,2.43
2019-04-28T02:11:07.665Z,2.40
2019-04-28T02:13:35.196Z,2.47
2019-04-28T02:16:02.760Z,2.23
2019-04-28T02:18:30.327Z,2.50
2019-04-28T02:21:12.585Z,2.07
2019-04-28T02:23:41.277Z,2.10
2019-04-28T02:26:11.045Z,3.17
2019-04-28T02:28:40.632Z,2.13
2019-04-28T02:31:07.980Z,2.50
2019-04-28T02:33:35.528Z,3.20
2019-04-28T02:36:15.137Z,2.43
2019-04-28T02:38:42.694Z,2.47
2019-04-28T02:41:11.105Z,2.90
2019-04-28T02:43:40.979Z,2.57
2019-04-28T02:46:11.317Z,2.43
2019-04-28T02:48:40.440Z,2.17
2019-04-28T02:51:15.786Z,2.53
2019-04-28T02:53:46.326Z,2.23
2019-04-28T02:56:21.329Z,2.80
2019-04-28T02:58:50.919Z,2.40
2019-04-28T03:01:25.842Z,2.67
2019-04-28T03:03:47.466Z,2.27
2019-04-28T03:09:44.261Z,2.10
2019-04-28T03:12:12.287Z,2.30
2019-04-28T03:14:44.004Z,2.20
2019-04-28T03:20:41.564Z,2.13
2019-04-28T03:23:09.872Z,2.17
2019-04-28T03:25:54.538Z,2.07
2019-04-28T03:28:44.408Z,2.53
2019-04-28T03:32:00.806Z,2.23
2019-04-28T03:34:03.866Z,2.43
2019-04-28T03:37:25.256Z,2.13
2019-04-28T03:39:52.834Z,1.93
2019-04-28T03:42:21.719Z,1.97
2019-04-28T03:44:53.118Z,1.90
2019-04-28T03:47:40.491Z,2.00
2019-04-28T03:50:10.175Z,1.77
2019-04-28T03:52:36.967Z,1.90
2019-04-28T03:55:04.713Z,1.60
2019-04-28T04:01:03.189Z,1.50
2019-04-28T04:03:33.013Z,1.50
2019-04-28T04:06:42.390Z,2.30
2019-04-28T04:09:11.297Z,2.10
2019-04-28T04:12:00.418Z,1.70
2019-04-28T04:14:58.009Z,1.87
2019-04-28T04:20:54.336Z,1.80
2019-04-28T04:23:23.247Z,1.80
2019-04-28T04:29:21.658Z,2.10
2019-04-28T04:31:51.181Z,1.80
2019-04-28T04:34:20.894Z,2.27
2019-04-28T04:37:25.566Z,1.93
2019-04-28T04:39:56.119Z,1.60
2019-04-28T04:42:23.994Z,2.10
2019-04-28T04:44:51.751Z,2.10
2019-04-28T04:50:50.885Z,1.80
2019-04-28T04:53:20.628Z,1.80
2019-04-28T04:56:33.494Z,1.90
2019-04-28T04:59:02.859Z,1.80
2019-04-28T05:01:50.326Z,1.90
2019-04-28T05:04:29.589Z,1.90
2019-04-28T05:07:24.595Z,1.90
2019-04-28T05:09:55.953Z,1.80
2019-04-28T05:12:23.773Z,1.60
2019-04-28T05:14:51.754Z,1.97
2019-04-28T05:17:51.221Z,2.20
2019-04-28T05:20:20.659Z,1.77
2019-04-28T05:22:55.204Z,2.50
2019-04-28T05:25:32.657Z,2.27
2019-04-28T05:28:02.933Z,2.03
2019-04-28T05:30:30.243Z,2.53
2019-04-28T05:32:57.932Z,2.50
2019-04-28T05:35:25.489Z,1.80
2019-04-28T05:38:04.995Z,2.43
2019-04-28T05:40:32.586Z,2.10
2019-04-28T05:43:01.045Z,1.70
2019-04-28T05:45:29.638Z,1.90
2019-04-28T05:47:59.425Z,1.83
2019-04-28T05:50:40.544Z,1.87
2019-04-28T05:53:19.294Z,1.90
2019-04-28T05:56:14.038Z,1.97
2019-04-28T05:58:45.834Z,1.67
2019-04-28T06:01:30.443Z,2.10
2019-04-28T06:03:58.135Z,2.47
2019-04-28T06:06:31.063Z,1.80
2019-04-28T06:09:25.862Z,2.13
2019-04-28T06:11:56.917Z,2.17
2019-04-28T06:14:24.942Z,2.33
2019-04-28T06:17:04.408Z,2.10
2019-04-28T06:19:31.996Z,2.30
2019-04-28T06:21:59.574Z,2.00
2019-04-28T06:24:27.239Z,2.57
2019-04-28T06:26:58.514Z,1.83
2019-04-28T06:29:26.092Z,1.90
2019-04-28T06:31:53.688Z,1.63
2019-04-28T06:34:21.179Z,2.10
2019-04-28T06:37:03.744Z,1.93
2019-04-28T06:39:31.318Z,1.90
2019-04-28T06:41:58.966Z,2.20
2019-04-28T06:44:26.536Z,2.00
2019-04-28T06:47:07.437Z,1.97
2019-04-28T06:49:35.032Z,2.10
2019-04-28T06:52:02.643Z,2.20
2019-04-28T06:54:30.654Z,2.20
2019-04-28T06:57:19.630Z,2.27
2019-04-28T06:59:47.124Z,2.30
2019-04-28T07:02:14.716Z,2.57
2019-04-28T07:04:42.463Z,2.40
2019-04-28T07:07:33.604Z,1.90
2019-04-28T07:10:01.203Z,2.87
2019-04-28T07:12:28.755Z,2.70
2019-04-28T07:14:56.599Z,2.20
2019-04-28T07:17:30.109Z,2.70
2019-04-28T07:20:09.242Z,2.83
2019-04-28T07:22:36.946Z,2.90
2019-04-28T07:25:04.671Z,2.80
2019-04-28T07:27:34.304Z,3.13
2019-04-28T07:30:01.862Z,3.10
2019-04-28T07:32:29.530Z,3.17
2019-04-28T07:34:57.031Z,3.50
2019-04-28T07:37:35.762Z,4.00
2019-04-28T07:40:03.665Z,3.50
2019-04-28T07:42:31.122Z,3.20
2019-04-28T07:44:58.665Z,3.50
2019-04-28T07:47:26.185Z,2.80
2019-04-28T07:49:53.739Z,3.13
2019-04-28T07:52:40.787Z,3.90
2019-04-28T07:55:30.487Z,3.30
2019-04-28T07:57:58.053Z,3.40
2019-04-28T08:00:29.250Z,4.07
2019-04-28T08:02:56.794Z,3.20
2019-04-28T08:05:24.347Z,3.30
2019-04-28T08:07:52.150Z,3.07
2019-04-28T08:10:19.748Z,3.90
2019-04-28T08:12:49.778Z,3.40
2019-04-28T08:15:17.317Z,3.20
2019-04-28T08:17:49.727Z,3.47
2019-04-28T08:20:19.481Z,3.33
2019-04-28T08:22:47.099Z,3.37
2019-04-28T08:25:14.669Z,4.00
2019-04-28T08:27:48.782Z,4.20
2019-04-28T08:30:16.236Z,4.13
2019-04-28T08:32:50.442Z,3.60
2019-04-28T08:35:18.018Z,3.70
2019-04-28T08:37:45.645Z,4.10
2019-04-28T08:40:13.359Z,4.17
2019-04-28T08:42:40.992Z,3.80
2019-04-28T08:45:09.175Z,3.47
2019-04-28T08:47:37.853Z,3.40
2019-04-28T08:50:06.897Z,3.40
2019-04-28T08:52:34.663Z,3.23
2019-04-28T08:55:02.260Z,2.53
2019-04-28T08:57:49.215Z,2.87
2019-04-28T09:00:17.149Z,2.50
2019-04-28T09:02:44.699Z,2.90
2019-04-28T09:05:13.009Z,2.73
2019-04-28T09:07:42.707Z,2.60
2019-04-28T09:10:10.538Z,2.70
2019-04-28T09:12:38.225Z,2.80
2019-04-28T09:15:05.974Z,3.20
2019-04-28T09:17:33.667Z,3.30
2019-04-28T09:20:01.612Z,3.33
2019-04-28T09:22:54.719Z,3.10
2019-04-28T09:25:26.262Z,3.20
2019-04-28T09:28:08.376Z,3.33
2019-04-28T09:30:33.598Z,3.37
2019-04-28T09:33:01.147Z,2.83
2019-04-28T09:35:36.515Z,2.77
2019-04-28T09:38:04.417Z,2.80
2019-04-28T09:40:46.771Z,3.00
2019-04-28T09:43:34.036Z,3.00
2019-04-28T09:46:08.555Z,2.80
2019-04-28T09:48:58.136Z,2.43
2019-04-28T09:51:26.031Z,2.43
2019-04-28T09:53:53.549Z,2.20
2019-04-28T09:56:29.459Z,2.13
2019-04-28T09:58:57.416Z,2.10
2019-04-28T10:01:28.382Z,2.37
2019-04-28T10:03:56.083Z,1.90
2019-04-28T10:06:26.780Z,2.00
2019-04-28T10:08:54.343Z,2.20
2019-04-28T10:11:30.344Z,2.30
2019-04-28T10:13:51.278Z,2.50
2019-04-28T10:16:18.890Z,2.40
2019-04-28T10:18:46.441Z,2.30
2019-04-28T10:21:14.085Z,2.63
2019-04-28T10:23:41.704Z,2.50
2019-04-28T10:26:09.484Z,2.80
2019-04-28T10:31:28.324Z,2.20
2019-04-28T10:33:59.446Z,2.50
2019-04-28T10:36:30.198Z,2.70
2019-04-28T10:39:18.376Z,2.57
2019-04-28T10:41:48.168Z,2.90
2019-04-28T10:44:15.812Z,2.70
2019-04-28T10:46:45.982Z,2.47
2019-04-28T10:49:13.704Z,2.50
2019-04-28T10:51:41.402Z,2.70
2019-04-28T10:54:09.023Z,2.20
2019-04-28T10:56:39.664Z,2.10
2019-04-28T10:59:07.877Z,2.30
2019-04-28T11:01:35.532Z,2.10
2019-04-28T11:04:06.908Z,2.40
2019-04-28T11:06:36.915Z,2.47
2019-04-28T11:09:30.046Z,2.40
2019-04-28T11:11:48.144Z,2.43
2019-04-28T11:14:15.860Z,2.40
2019-04-28T11:16:43.766Z,2.30
2019-04-28T11:19:11.623Z,2.20
2019-04-28T11:21:39.213Z,2.20
2019-04-28T11:24:06.850Z,2.50
2019-04-28T11:26:34.510Z,2.07
2019-04-28T11:29:02.378Z,2.17
2019-04-28T11:31:29.955Z,2.23
2019-04-28T11:34:05.112Z,2.40
2019-04-28T11:36:32.622Z,2.30
2019-04-28T11:39:00.234Z,2.00
2019-04-28T11:41:27.813Z,2.10
2019-04-28T11:43:55.568Z,2.07
2019-04-28T11:46:24.028Z,1.80
2019-04-28T11:48:51.594Z,2.10
2019-04-28T11:51:19.208Z,2.33
2019-04-28T11:53:46.910Z,2.03
2019-04-28T11:56:42.007Z,2.50
2019-04-28T11:59:09.824Z,2.60
2019-04-28T12:01:37.488Z,2.50
2019-04-28T12:04:07.002Z,2.27
2019-04-28T12:06:38.190Z,2.10
2019-04-28T12:09:28.663Z,2.07
2019-04-28T12:11:56.752Z,1.60
2019-04-28T12:14:29.081Z,1.70
2019-04-28T12:17:14.898Z,1.63
2019-04-28T12:19:48.839Z,1.57
2019-04-28T12:22:16.578Z,1.43
2019-04-28T12:24:44.135Z,1.40
2019-04-28T12:27:11.751Z,1.40
2019-04-28T12:29:39.425Z,2.00
2019-04-28T12:32:07.032Z,1.70
2019-04-28T12:34:42.311Z,1.70
2019-04-28T12:37:09.995Z,1.40
2019-04-28T12:39:37.571Z,1.90
2019-04-28T12:42:05.193Z,1.30
2019-04-28T12:44:32.778Z,1.30
2019-04-28T12:47:13.373Z,1.37
2019-04-28T12:50:06.457Z,1.60
2019-04-28T12:52:34.038Z,1.73
2019-04-28T12:55:01.654Z,1.77
2019-04-28T12:57:29.273Z,1.57
2019-04-28T13:00:03.774Z,1.50
2019-04-28T13:02:53.916Z,1.63
2019-04-28T13:05:21.695Z,2.60
2019-04-28T13:07:49.290Z,2.10
2019-04-28T13:10:16.841Z,1.60
2019-04-28T13:12:44.449Z,1.60
2019-04-28T13:15:12.101Z,1.53
2019-04-28T13:17:44.989Z,1.30
2019-04-28T13:20:12.798Z,1.40
2019-04-28T13:22:40.428Z,1.30
2019-04-28T13:25:08.073Z,1.30
2019-04-28T13:27:37.664Z,1.40
2019-04-28T13:30:05.965Z,1.50
2019-04-28T13:32:33.618Z,1.70
2019-04-28T13:35:01.253Z,1.60
2019-04-28T13:37:31.101Z,1.80
2019-04-28T13:40:02.231Z,1.90
2019-04-28T13:42:29.927Z,1.60
2019-04-28T13:45:01.294Z,2.20
2019-04-28T13:47:28.901Z,1.70
2019-04-28T13:50:11.956Z,1.90
2019-04-28T13:52:39.547Z,2.13
2019-04-28T13:55:35.954Z,2.00
2019-04-28T13:58:04.375Z,2.00
2019-04-28T14:00:41.318Z,2.30
2019-04-28T14:03:21.746Z,2.27
2019-04-28T14:06:05.755Z,2.40
2019-04-28T14:08:36.947Z,2.00
2019-04-28T14:11:04.681Z,2.03
2019-04-28T14:13:32.279Z,2.40
2019-04-28T14:15:59.848Z,3.43
2019-04-28T14:18:27.432Z,3.20
2019-04-28T14:20:55.091Z,3.50
2019-04-28T14:23:23.859Z,3.00
2019-04-28T14:25:51.464Z,3.30
2019-04-28T14:28:19.051Z,3.20
2019-04-28T14:30:46.718Z,3.53
2019-04-28T14:33:16.497Z,3.23
2019-04-28T14:35:46.759Z,3.53
2019-04-28T14:38:14.446Z,4.50
2019-04-28T14:40:42.044Z,4.53
2019-04-28T14:43:09.802Z,5.87
2019-04-28T14:45:37.403Z,5.40
2019-04-28T14:48:05.026Z,5.70
2019-04-28T14:50:32.912Z,5.20
2019-04-28T14:53:00.726Z,4.50
2019-04-28T14:55:28.401Z,4.90
2019-04-28T14:58:07.929Z,5.10
2019-04-28T15:00:43.177Z,4.90
2019-04-28T15:03:12.769Z,5.30
2019-04-28T15:05:47.178Z,4.13
2019-04-28T15:08:27.433Z,4.30
2019-04-28T15:11:04.822Z,4.23
2019-04-28T15:13:32.425Z,4.40
2019-04-28T15:19:28.254Z,4.37
2019-04-28T15:21:55.879Z,4.23
2019-04-28T15:24:23.571Z,4.50
2019-04-28T15:30:31.792Z,4.43
2019-04-28T15:32:59.386Z,4.57
2019-04-28T15:35:27.049Z,4.67
2019-04-28T15:38:12.911Z,4.60
2019-04-28T15:40:40.600Z,4.80
2019-04-28T15:43:08.360Z,5.10
2019-04-28T15:45:36.015Z,4.73
2019-04-28T15:48:03.860Z,5.30
2019-04-28T15:50:31.476Z,6.03
2019-04-28T15:52:59.092Z,6.00
2019-04-28T15:55:46.499Z,6.20
2019-04-28T15:58:30.953Z,6.17
2019-04-28T16:00:59.009Z,6.20
2019-04-28T16:03:26.677Z,6.77
2019-04-28T16:05:54.438Z,6.40
2019-04-28T16:08:23.919Z,6.60
2019-04-28T16:10:51.656Z,7.27
2019-04-28T16:13:19.355Z,7.20
2019-04-28T16:16:26.605Z,6.97
2019-04-28T16:18:54.217Z,6.60
2019-04-28T16:21:24.740Z,7.00
2019-04-28T16:23:52.500Z,7.20
2019-04-28T16:26:41.539Z,7.07
2019-04-28T16:29:09.317Z,7.10
2019-04-28T16:31:37.145Z,7.03
2019-04-28T16:34:04.917Z,6.60
2019-04-28T16:36:56.197Z,7.10
2019-04-28T16:39:24.020Z,6.80
2019-04-28T16:41:53.869Z,6.37
2019-04-28T16:44:26.691Z,6.70
2019-04-28T16:46:57.693Z,6.67
2019-04-28T16:49:25.501Z,6.20
2019-04-28T16:51:53.204Z,6.23
2019-04-28T16:54:20.863Z,6.17
2019-04-28T16:57:04.422Z,6.50
2019-04-28T16:59:54.232Z,6.80
2019-04-28T17:02:33.531Z,7.67
2019-04-28T17:05:03.275Z,11.70
2019-04-28T17:07:52.050Z,6.27
2019-04-28T17:10:09.889Z,6.27
2019-04-28T17:12:37.509Z,6.63
2019-04-28T17:15:06.706Z,6.50
2019-04-28T17:17:41.611Z,7.67
2019-04-28T17:20:09.489Z,8.00
2019-04-28T17:22:37.043Z,7.07
2019-04-28T17:25:06.427Z,6.37
2019-04-28T17:27:33.997Z,6.00
2019-04-28T17:30:02.380Z,6.00
2019-04-28T17:32:30.059Z,5.97
2019-04-28T17:34:57.629Z,5.97
2019-04-28T17:37:30.574Z,6.30
2019-04-28T17:39:58.148Z,6.43
2019-04-28T17:42:25.843Z,6.20
2019-04-28T17:44:53.474Z,6.13
2019-04-28T17:47:21.097Z,6.57
2019-04-28T17:49:48.725Z,6.53
2019-04-28T17:52:16.415Z,6.67
2019-04-28T17:54:44.006Z,6.90
2019-04-28T17:57:14.057Z,7.20
2019-04-28T17:59:42.027Z,7.47
2019-04-28T18:02:31.866Z,7.37
2019-04-28T18:05:22.294Z,6.57
2019-04-28T18:07:56.369Z,7.90
2019-04-28T18:10:22.899Z,7.80
2019-04-28T18:13:15.558Z,7.53
2019-04-28T18:16:07.613Z,8.20
2019-04-28T18:18:41.146Z,7.83
2019-04-28T18:21:08.793Z,7.27
2019-04-28T18:23:36.492Z,8.80
2019-04-28T18:26:08.354Z,7.90
2019-04-28T18:28:35.984Z,8.10
2019-04-28T18:31:18.873Z,8.33
2019-04-28T18:34:04.958Z,8.50
2019-04-28T18:36:40.975Z,8.00
2019-04-28T18:39:37.052Z,8.30
2019-04-28T18:42:30.260Z,9.20
2019-04-28T18:44:58.024Z,8.57
2019-04-28T18:47:37.745Z,8.87
2019-04-28T18:50:05.714Z,9.07
2019-04-28T18:52:35.680Z,8.30
2019-04-28T18:55:06.097Z,9.23
2019-04-28T18:57:35.659Z,8.50
2019-04-28T19:00:03.629Z,9.47
2019-04-28T19:02:42.680Z,8.60
2019-04-28T19:05:10.846Z,9.17
2019-04-28T19:08:16.895Z,9.37
2019-04-28T19:11:03.475Z,9.13
2019-04-28T19:13:33.540Z,9.03
2019-04-28T19:16:26.207Z,8.80
2019-04-28T19:18:56.058Z,8.37
2019-04-28T19:21:23.799Z,9.07
2019-04-28T19:23:54.094Z,9.57
2019-04-28T19:26:20.846Z,9.73
2019-04-28T19:28:48.489Z,9.50
2019-04-28T19:31:16.157Z,9.77
2019-04-28T19:33:43.788Z,9.63
2019-04-28T19:36:11.359Z,9.97
2019-04-28T19:38:41.765Z,9.83
2019-04-28T19:41:09.394Z,9.43
2019-04-28T19:43:36.961Z,10.87
2019-04-28T19:46:07.737Z,11.23
2019-04-28T19:48:35.358Z,15.20
2019-04-28T19:51:05.817Z,14.93
2019-04-28T19:53:33.473Z,10.83
2019-04-28T19:56:07.416Z,10.73
2019-04-28T19:58:42.220Z,10.83
2019-04-28T20:01:14.258Z,10.30
2019-04-28T20:03:41.901Z,10.53
2019-04-28T20:06:09.759Z,10.13
2019-04-28T20:08:37.386Z,11.23
2019-04-28T20:11:05.069Z,11.40
2019-04-28T20:13:32.708Z,13.60
2019-04-28T20:16:00.248Z,13.03
2019-04-28T20:18:29.471Z,12.33
2019-04-28T20:20:57.319Z,12.63
2019-04-28T20:23:24.801Z,13.37
2019-04-28T20:25:52.359Z,14.93
2019-04-28T20:28:20.030Z,18.37
2019-04-28T20:30:47.619Z,17.77
2019-04-28T20:33:15.224Z,18.50
2019-04-28T20:35:48.178Z,15.63
2019-04-28T20:38:26.019Z,14.40
2019-04-28T20:41:19.233Z,13.93
2019-04-28T20:43:46.802Z,13.53
2019-04-28T20:46:14.410Z,12.13
2019-04-28T20:48:41.975Z,12.33
2019-04-28T20:51:09.529Z,13.13
2019-04-28T20:53:37.090Z,12.07
2019-04-28T20:56:06.714Z,12.10
2019-04-28T20:58:34.363Z,11.93
2019-04-28T21:01:01.959Z,12.40
2019-04-28T21:03:29.582Z,12.50
2019-04-28T21:06:00.555Z,12.40
2019-04-28T21:08:28.130Z,14.60
2019-04-28T21:10:55.671Z,14.90
2019-04-28T21:13:23.239Z,15.17
2019-04-28T21:15:53.927Z,16.73
2019-04-28T21:18:21.513Z,17.03
2019-04-28T21:20:49.269Z,16.40
2019-04-28T21:23:16.853Z,15.43
2019-04-28T21:25:44.333Z,15.37
2019-04-28T21:28:11.940Z,16.07
2019-04-28T21:30:39.460Z,15.00
2019-04-28T21:33:07.037Z,15.20
2019-04-28T21:35:34.622Z,14.37
2019-04-28T21:38:02.175Z,14.03
2019-04-28T21:40:29.661Z,13.93
2019-04-28T21:43:06.740Z,14.50
2019-04-28T21:45:50.633Z,13.70
2019-04-28T21:48:40.002Z,14.57
2019-04-28T21:51:07.525Z,12.70
2019-04-28T21:53:35.121Z,12.87
2019-04-28T21:56:05.595Z,13.33
2019-04-28T21:58:33.781Z,13.20
2019-04-28T22:01:01.491Z,12.70
2019-04-28T22:03:29.085Z,13.10
2019-04-28T22:05:56.664Z,14.27
2019-04-28T22:08:24.102Z,13.53
2019-04-28T22:10:52.486Z,12.07
2019-04-28T22:13:20.053Z,12.53
2019-04-28T22:15:47.556Z,10.97
2019-04-28T22:18:15.127Z,11.17
2019-04-28T22:20:42.558Z,11.00
2019-04-28T22:23:18.763Z,12.27
2019-04-28T22:25:42.497Z,14.83
2019-04-28T22:28:10.022Z,13.60
2019-04-28T22:30:37.579Z,15.10
2019-04-28T22:33:05.236Z,13.70
2019-04-28T22:35:32.798Z,13.20
2019-04-28T22:38:00.276Z,13.40
2019-04-28T22:40:27.829Z,14.07
2019-04-28T22:42:55.404Z,13.20
2019-04-28T22:45:22.963Z,12.53
2019-04-28T22:47:56.007Z,13.50
2019-04-28T22:50:41.666Z,15.30
2019-04-28T22:53:09.299Z,14.63
2019-04-28T22:55:42.260Z,13.77
2019-04-28T22:58:24.957Z,13.33
2019-04-28T23:01:00.120Z,14.10
2019-04-28T23:03:39.317Z,14.57
2019-04-28T23:06:06.826Z,12.47
2019-04-28T23:08:34.386Z,14.03
2019-04-28T23:11:01.812Z,12.77
2019-04-28T23:13:29.333Z,12.63
2019-04-28T23:15:56.772Z,13.93
2019-04-28T23:18:24.310Z,13.40
2019-04-28T23:20:55.287Z,13.43
2019-04-28T23:23:22.908Z,12.90
2019-04-28T23:25:50.446Z,12.40
2019-04-28T23:28:17.977Z,12.90
2019-04-28T23:30:46.196Z,11.20
2019-04-28T23:33:13.669Z,12.17
2019-04-28T23:35:41.284Z,11.83
2019-04-28T23:38:08.797Z,13.20
2019-04-28T23:40:41.494Z,12.57
2019-04-28T23:43:14.061Z,12.30
2019-04-28T23:45:41.500Z,13.00
2019-04-28T23:48:09.033Z,12.80
2019-04-28T23:50:42.737Z,12.23
2019-04-28T23:53:13.553Z,12.40
2019-04-28T23:55:41.089Z,12.80
2019-04-28T23:58:08.594Z,11.53
